Time;durP1;ratioP1;P1;durP2;ratioP2;P2;SDS_P1;SDS_P2;PMS_P1;PMS_P2;Temp;Humidity;BMP_temperature;BMP_pressure;BME280_temperature;BME280_humidity;BME280_pressure;Samples;Min_cycle;Max_cycle;Signal;HPM_P1;HPM_P2
2023/02/28 00:01:21;;;;;;;5.93;1.40;;;;;;;;;;6126852;23;20387;-85
2023/02/28 00:03:49;;;;;;;5.10;1.40;;;;;;;;;;6153634;23;20382;-85
2023/02/28 00:06:23;;;;;;;6.03;1.67;;;;;;;;;;6151196;23;20857;-85
2023/02/28 00:08:56;;;;;;;5.20;1.50;;;;;;;;;;6151142;23;20410;-85
2023/02/28 00:11:24;;;;;;;3.87;1.37;;;;;;;;;;6151583;23;20869;-85
2023/02/28 00:13:52;;;;;;;5.10;1.50;;;;;;;;;;6153215;23;20370;-85
2023/02/28 00:16:21;;;;;;;5.53;1.38;;;;;;;;;;6126710;23;20375;-84
2023/02/28 00:18:49;;;;;;;4.97;1.63;;;;;;;;;;6153263;23;20367;-85
2023/02/28 00:21:22;;;;;;;5.00;1.45;;;;;;;;;;6152635;23;20395;-85
2023/02/28 00:23:56;;;;;;;7.20;1.73;;;;;;;;;;6126625;23;20398;-85
2023/02/28 00:26:24;;;;;;;5.50;1.60;;;;;;;;;;6150768;23;20386;-85
2023/02/28 00:28:52;;;;;;;7.88;1.70;;;;;;;;;;6153610;23;20371;-85
2023/02/28 00:31:20;;;;;;;6.10;1.33;;;;;;;;;;6127333;23;20382;-85
2023/02/28 00:33:48;;;;;;;8.20;1.55;;;;;;;;;;6126540;23;20398;-85
2023/02/28 00:36:16;;;;;;;5.67;1.50;;;;;;;;;;6126284;23;20379;-85
2023/02/28 00:38:44;;;;;;;4.38;1.45;;;;;;;;;;6126728;23;20681;-85
2023/02/28 00:41:18;;;;;;;8.00;1.58;;;;;;;;;;6163199;23;20390;-85
2023/02/28 00:43:48;;;;;;;5.05;1.70;;;;;;;;;;6125225;23;20393;-86
2023/02/28 00:46:20;;;;;;;5.78;1.48;;;;;;;;;;6150615;23;20844;-85
2023/02/28 00:48:53;;;;;;;3.95;1.60;;;;;;;;;;6162680;23;20832;-85
2023/02/28 00:51:21;;;;;;;7.50;1.90;;;;;;;;;;6153222;23;20663;-85
2023/02/28 00:53:54;;;;;;;4.63;1.60;;;;;;;;;;6150613;23;20387;-85
2023/02/28 00:56:28;;;;;;;6.07;1.60;;;;;;;;;;6162442;23;20379;-86
2023/02/28 00:59:01;;;;;;;8.73;1.80;;;;;;;;;;6162974;23;20374;-85
2023/02/28 01:01:29;;;;;;;3.78;1.40;;;;;;;;;;6126620;23;20375;-85
2023/02/28 01:04:01;;;;;;;6.72;1.88;;;;;;;;;;6126262;23;20390;-85
2023/02/28 01:06:36;;;;;;;5.88;1.70;;;;;;;;;;6150464;23;20383;-85
2023/02/28 01:09:05;;;;;;;6.60;1.83;;;;;;;;;;6126031;23;20383;-85
2023/02/28 01:11:34;;;;;;;6.60;1.70;;;;;;;;;;6126074;23;20396;-85
2023/02/28 01:14:07;;;;;;;4.70;1.65;;;;;;;;;;6126687;23;20383;-85
2023/02/28 01:16:35;;;;;;;7.78;1.80;;;;;;;;;;6152379;23;20370;-85
2023/02/28 01:19:03;;;;;;;7.93;1.90;;;;;;;;;;6126398;23;20712;-85
2023/02/28 01:21:36;;;;;;;7.40;1.85;;;;;;;;;;6150971;23;20390;-85
2023/02/28 01:24:04;;;;;;;6.82;2.05;;;;;;;;;;6125877;23;20386;-85
2023/02/28 01:26:33;;;;;;;7.90;1.80;;;;;;;;;;6150923;23;20406;-86
2023/02/28 01:29:01;;;;;;;6.95;2.30;;;;;;;;;;6125528;23;20379;-84
2023/02/28 01:31:29;;;;;;;9.13;3.30;;;;;;;;;;6153062;23;20453;-85
2023/02/28 01:33:57;;;;;;;7.77;2.73;;;;;;;;;;6126515;23;20383;-85
2023/02/28 01:36:30;;;;;;;7.70;2.70;;;;;;;;;;6126360;23;20383;-85
2023/02/28 01:38:58;;;;;;;8.05;3.00;;;;;;;;;;6125456;23;20701;-85
2023/02/28 01:41:31;;;;;;;13.05;5.03;;;;;;;;;;6127286;23;20451;-85
2023/02/28 01:44:07;;;;;;;19.47;8.50;;;;;;;;;;6125190;23;20868;-85
2023/02/28 01:46:36;;;;;;;15.20;6.53;;;;;;;;;;6125446;23;20880;-85
2023/02/28 01:49:07;;;;;;;13.50;6.00;;;;;;;;;;6125472;23;20398;-86
2023/02/28 01:51:45;;;;;;;16.95;6.60;;;;;;;;;;6150789;23;20390;-85
2023/02/28 01:54:15;;;;;;;15.07;5.68;;;;;;;;;;6163398;23;20363;-86
2023/02/28 01:56:49;;;;;;;23.33;10.88;;;;;;;;;;6164250;23;20386;-85
2023/02/28 01:59:26;;;;;;;12.38;5.72;;;;;;;;;;6128032;23;20378;-84
2023/02/28 02:01:59;;;;;;;10.27;4.25;;;;;;;;;;6127423;23;20878;-86
2023/02/28 02:04:29;;;;;;;11.20;3.83;;;;;;;;;;6128296;23;20383;-86
2023/02/28 02:06:58;;;;;;;10.00;3.47;;;;;;;;;;6126979;23;20383;-85
2023/02/28 02:09:31;;;;;;;9.17;3.57;;;;;;;;;;6127702;23;20386;-85
2023/02/28 02:12:00;;;;;;;9.33;3.60;;;;;;;;;;6154617;23;20366;-85
2023/02/28 02:14:44;;;;;;;9.88;3.60;;;;;;;;;;6164317;23;20379;-85
2023/02/28 02:17:21;;;;;;;10.02;3.88;;;;;;;;;;6126449;23;20411;-85
2023/02/28 02:20:13;;;;;;;9.02;3.65;;;;;;;;;;6127852;23;20410;-85
2023/02/28 02:22:58;;;;;;;10.50;3.63;;;;;;;;;;6127154;23;20662;-85
2023/02/28 02:25:34;;;;;;;10.18;3.60;;;;;;;;;;6100669;23;20402;-85
2023/02/28 02:28:34;;;;;;;8.75;3.40;;;;;;;;;;6127095;23;20689;-85
2023/02/28 02:31:19;;;;;;;7.35;3.40;;;;;;;;;;6151842;23;20729;-85
2023/02/28 02:34:02;;;;;;;9.63;3.60;;;;;;;;;;6163949;23;20391;-84
2023/02/28 02:36:37;;;;;;;9.43;3.60;;;;;;;;;;6151936;23;20473;-85
2023/02/28 02:39:07;;;;;;;10.10;3.45;;;;;;;;;;6126957;23;20386;-85
2023/02/28 02:41:37;;;;;;;9.43;3.28;;;;;;;;;;6127030;23;20387;-85
2023/02/28 02:44:14;;;;;;;9.38;3.28;;;;;;;;;;6163973;23;20371;-84
2023/02/28 02:46:43;;;;;;;10.55;3.38;;;;;;;;;;6127650;23;20387;-85
2023/02/28 02:49:18;;;;;;;8.20;3.30;;;;;;;;;;6127531;23;20383;-85
2023/02/28 02:51:48;;;;;;;9.27;3.20;;;;;;;;;;6127936;23;20383;-85
2023/02/28 02:54:23;;;;;;;9.32;3.35;;;;;;;;;;6163885;23;20374;-84
2023/02/28 02:56:52;;;;;;;10.25;2.92;;;;;;;;;;6127452;23;20394;-85
2023/02/28 02:59:25;;;;;;;9.20;3.40;;;;;;;;;;6127456;23;20383;-85
2023/02/28 03:01:55;;;;;;;9.80;2.90;;;;;;;;;;6127448;23;20389;-86
2023/02/28 03:04:25;;;;;;;8.27;2.67;;;;;;;;;;6126814;23;20379;-85
2023/02/28 03:06:55;;;;;;;9.70;2.90;;;;;;;;;;6126514;23;20386;-85
2023/02/28 03:09:27;;;;;;;6.80;2.28;;;;;;;;;;6151353;23;20379;-85
2023/02/28 03:12:00;;;;;;;6.38;2.30;;;;;;;;;;6163910;23;20379;-85
2023/02/28 03:14:34;;;;;;;8.48;2.72;;;;;;;;;;6127067;23;20704;-85
2023/02/28 03:17:17;;;;;;;6.40;2.42;;;;;;;;;;6150821;23;20967;-85
2023/02/28 03:19:55;;;;;;;7.75;2.30;;;;;;;;;;6127078;23;20387;-85
2023/02/28 03:22:44;;;;;;;9.40;3.00;;;;;;;;;;6127670;23;20425;-84
2023/02/28 03:25:18;;;;;;;8.95;2.80;;;;;;;;;;6149371;23;20390;-85
2023/02/28 03:27:56;;;;;;;9.88;3.00;;;;;;;;;;6163088;23;20435;-84
2023/02/28 03:30:31;;;;;;;10.40;3.13;;;;;;;;;;6163487;23;20426;-85
2023/02/28 03:33:02;;;;;;;10.98;3.42;;;;;;;;;;6127402;23;20383;-85
2023/02/28 03:35:37;;;;;;;8.02;2.75;;;;;;;;;;6127085;23;20398;-85
2023/02/28 03:38:07;;;;;;;9.90;3.20;;;;;;;;;;6127091;23;20903;-85
2023/02/28 03:40:43;;;;;;;7.65;3.10;;;;;;;;;;6163768;23;20371;-84
2023/02/28 03:43:14;;;;;;;8.40;3.03;;;;;;;;;;6126185;23;20387;-85
2023/02/28 03:45:49;;;;;;;9.65;3.30;;;;;;;;;;6163149;23;20382;-85
2023/02/28 03:48:24;;;;;;;9.40;3.15;;;;;;;;;;6162911;23;20840;-85
2023/02/28 03:50:59;;;;;;;10.23;3.43;;;;;;;;;;6126260;23;20387;-86
2023/02/28 03:53:33;;;;;;;9.57;3.20;;;;;;;;;;6127452;23;20391;-86
2023/02/28 03:56:10;;;;;;;12.32;3.33;;;;;;;;;;6150591;23;20390;-85
2023/02/28 03:58:44;;;;;;;9.70;3.63;;;;;;;;;;6126229;23;20713;-85
2023/02/28 04:01:20;;;;;;;9.63;3.53;;;;;;;;;;6163356;23;20952;-85
2023/02/28 04:03:50;;;;;;;11.77;3.55;;;;;;;;;;6150853;23;20379;-85
2023/02/28 04:06:24;;;;;;;10.47;3.20;;;;;;;;;;6126056;23;20863;-85
2023/02/28 04:08:52;;;;;;;8.65;3.40;;;;;;;;;;6126792;23;20456;-86
2023/02/28 04:11:23;;;;;;;8.82;3.83;;;;;;;;;;6151048;23;20858;-85
2023/02/28 04:13:51;;;;;;;10.18;3.72;;;;;;;;;;6126009;23;20390;-86
2023/02/28 04:16:24;;;;;;;8.80;3.88;;;;;;;;;;6162717;23;20693;-86
2023/02/28 04:18:52;;;;;;;11.50;4.22;;;;;;;;;;6126260;23;20852;-85
2023/02/28 04:21:25;;;;;;;10.20;3.90;;;;;;;;;;6150717;23;20848;-86
2023/02/28 04:23:53;;;;;;;10.20;4.00;;;;;;;;;;6152956;23;20367;-84
2023/02/28 04:26:21;;;;;;;10.30;4.10;;;;;;;;;;6151112;23;20390;-81
2023/02/28 04:28:55;;;;;;;14.07;4.10;;;;;;;;;;6162936;23;20693;-84
2023/02/28 04:31:28;;;;;;;10.68;3.90;;;;;;;;;;6163014;23;20386;-87
2023/02/28 04:34:01;;;;;;;9.40;4.20;;;;;;;;;;6162680;23;20863;-86
2023/02/28 04:36:34;;;;;;;10.52;3.90;;;;;;;;;;6162325;23;20387;-86
2023/02/28 04:39:02;;;;;;;10.98;4.28;;;;;;;;;;6125659;23;20379;-85
2023/02/28 04:41:29;;;;;;;9.73;4.32;;;;;;;;;;6126651;23;20378;-86
2023/02/28 04:43:59;;;;;;;9.13;3.90;;;;;;;;;;6125745;23;20402;-86
2023/02/28 04:46:31;;;;;;;12.13;4.88;;;;;;;;;;6150251;23;20379;-86
2023/02/28 04:49:04;;;;;;;12.65;4.25;;;;;;;;;;6162576;23;20866;-86
2023/02/28 04:51:32;;;;;;;12.45;4.80;;;;;;;;;;6125546;23;20859;-84
2023/02/28 04:54:00;;;;;;;11.63;4.43;;;;;;;;;;6126338;23;20383;-86
2023/02/28 04:56:28;;;;;;;11.48;4.20;;;;;;;;;;6152506;23;20967;-86
2023/02/28 04:59:02;;;;;;;12.55;4.60;;;;;;;;;;6125771;23;20379;-86
2023/02/28 05:01:36;;;;;;;10.15;4.85;;;;;;;;;;6150309;23;20378;-85
2023/02/28 05:04:10;;;;;;;12.18;5.05;;;;;;;;;;6150054;23;20716;-85
2023/02/28 05:06:43;;;;;;;13.35;5.70;;;;;;;;;;6125631;23;20893;-86
2023/02/28 05:09:12;;;;;;;13.95;6.47;;;;;;;;;;6149749;23;20387;-86
2023/02/28 05:11:45;;;;;;;11.60;4.90;;;;;;;;;;6162167;23;20382;-84
2023/02/28 05:14:19;;;;;;;13.07;4.88;;;;;;;;;;6161944;23;20386;-86
2023/02/28 05:16:52;;;;;;;11.23;4.95;;;;;;;;;;6124913;23;20391;-85
2023/02/28 05:19:21;;;;;;;12.15;4.93;;;;;;;;;;6152193;23;20367;-85
2023/02/28 05:21:51;;;;;;;15.80;5.05;;;;;;;;;;6125967;23;20387;-85
2023/02/28 05:24:22;;;;;;;11.80;5.22;;;;;;;;;;6125765;23;20395;-85
2023/02/28 05:26:55;;;;;;;12.70;5.10;;;;;;;;;;6149869;23;20394;-85
2023/02/28 05:29:24;;;;;;;14.40;5.13;;;;;;;;;;6152039;23;20394;-86
2023/02/28 05:31:57;;;;;;;11.55;5.07;;;;;;;;;;6149667;23;20390;-83
2023/02/28 05:34:25;;;;;;;10.50;5.20;;;;;;;;;;6152363;23;20367;-86
2023/02/28 05:36:57;;;;;;;13.25;5.03;;;;;;;;;;6161576;23;20382;-84
2023/02/28 05:39:30;;;;;;;10.90;5.07;;;;;;;;;;6125722;23;20382;-84
2023/02/28 05:42:03;;;;;;;11.37;5.00;;;;;;;;;;6149661;23;20872;-86
2023/02/28 05:44:32;;;;;;;12.23;5.65;;;;;;;;;;6124492;23;20386;-85
2023/02/28 05:47:05;;;;;;;11.18;5.57;;;;;;;;;;6161468;23;20367;-85
2023/02/28 05:49:38;;;;;;;10.83;5.40;;;;;;;;;;6149200;23;20386;-86
2023/02/28 05:52:11;;;;;;;10.90;5.28;;;;;;;;;;6154226;23;20379;-85
2023/02/28 05:54:38;;;;;;;12.63;5.43;;;;;;;;;;6125286;23;20686;-85
2023/02/28 05:57:11;;;;;;;13.68;5.70;;;;;;;;;;6124980;23;20382;-86
2023/02/28 05:59:40;;;;;;;11.00;5.28;;;;;;;;;;6152072;23;20363;-84
2023/02/28 06:02:14;;;;;;;13.33;4.90;;;;;;;;;;6159833;23;20374;-85
2023/02/28 06:04:47;;;;;;;12.97;5.00;;;;;;;;;;6147999;23;20682;-85
2023/02/28 06:07:19;;;;;;;12.50;5.65;;;;;;;;;;6148624;23;20391;-85
2023/02/28 06:09:47;;;;;;;15.23;5.25;;;;;;;;;;6125224;23;20395;-85
2023/02/28 06:12:20;;;;;;;11.75;5.32;;;;;;;;;;6161164;23;20385;-85
2023/02/28 06:14:54;;;;;;;11.20;5.22;;;;;;;;;;6124699;23;20398;-85
2023/02/28 06:17:27;;;;;;;11.35;5.20;;;;;;;;;;6160996;23;20379;-84
2023/02/28 06:20:00;;;;;;;14.00;4.60;;;;;;;;;;6156159;23;20402;-84
2023/02/28 06:22:32;;;;;;;12.57;5.07;;;;;;;;;;6160945;23;20379;-84
2023/02/28 06:25:06;;;;;;;14.38;5.07;;;;;;;;;;6125348;23;20383;-85
2023/02/28 06:27:34;;;;;;;10.30;4.82;;;;;;;;;;6124965;23;20848;-86
2023/02/28 06:30:09;;;;;;;11.85;4.70;;;;;;;;;;6151307;23;20912;-85
2023/02/28 06:32:42;;;;;;;11.27;4.68;;;;;;;;;;6150218;23;20378;-85
2023/02/28 06:35:10;;;;;;;10.80;5.20;;;;;;;;;;6124315;23;20390;-85
2023/02/28 06:37:38;;;;;;;10.60;4.90;;;;;;;;;;6124693;23;20390;-85
2023/02/28 06:40:12;;;;;;;10.55;5.20;;;;;;;;;;6161538;23;20394;-84
2023/02/28 06:42:45;;;;;;;12.00;5.15;;;;;;;;;;6151292;23;20383;-85
2023/02/28 06:45:15;;;;;;;13.20;5.50;;;;;;;;;;6126990;23;20410;-84
2023/02/28 06:47:51;;;;;;;10.07;5.00;;;;;;;;;;6150771;23;20387;-84
2023/02/28 06:50:24;;;;;;;9.93;4.72;;;;;;;;;;6149685;23;20851;-85
2023/02/28 06:52:53;;;;;;;10.27;5.00;;;;;;;;;;6162794;23;20367;-84
2023/02/28 06:55:26;;;;;;;11.70;5.57;;;;;;;;;;6163421;23;20382;-85
2023/02/28 06:57:54;;;;;;;10.75;5.18;;;;;;;;;;6153237;23;20382;-85
2023/02/28 07:00:28;;;;;;;12.13;4.90;;;;;;;;;;6126089;23;20387;-84
2023/02/28 07:02:56;;;;;;;10.07;4.97;;;;;;;;;;6126422;23;20398;-85
2023/02/28 07:05:24;;;;;;;12.15;5.07;;;;;;;;;;6125791;23;20390;-90
2023/02/28 07:07:52;;;;;;;10.68;4.72;;;;;;;;;;6148574;23;20895;-85
2023/02/28 07:10:20;;;;;;;10.13;4.72;;;;;;;;;;6152526;23;20409;-86
2023/02/28 07:12:53;;;;;;;9.95;4.45;;;;;;;;;;6151346;23;20387;-85
2023/02/28 07:15:20;;;;;;;10.80;4.38;;;;;;;;;;6126282;23;20383;-84
2023/02/28 07:17:50;;;;;;;9.00;4.30;;;;;;;;;;6152939;23;20363;-87
2023/02/28 07:20:22;;;;;;;12.27;4.45;;;;;;;;;;6151563;23;20371;-88
2023/02/28 07:22:56;;;;;;;9.43;4.35;;;;;;;;;;6161797;23;20375;-87
2023/02/28 07:25:29;;;;;;;11.35;4.90;;;;;;;;;;6163275;23;20378;-87
2023/02/28 07:28:02;;;;;;;10.55;5.22;;;;;;;;;;6162069;23;20378;-85
2023/02/28 07:30:30;;;;;;;13.13;5.00;;;;;;;;;;6126032;23;20394;-86
2023/02/28 07:33:04;;;;;;;13.73;5.60;;;;;;;;;;6127192;23;20383;-86
2023/02/28 07:35:32;;;;;;;12.93;5.85;;;;;;;;;;6163433;23;20363;-88
2023/02/28 07:38:07;;;;;;;11.82;5.63;;;;;;;;;;6161646;23;20383;-86
2023/02/28 07:40:40;;;;;;;15.30;5.80;;;;;;;;;;6150510;23;20375;-86
2023/02/28 07:43:08;;;;;;;11.93;5.28;;;;;;;;;;6152504;23;20367;-87
2023/02/28 07:45:36;;;;;;;10.30;4.07;;;;;;;;;;6125869;23;20844;-87
2023/02/28 07:48:05;;;;;;;10.57;4.50;;;;;;;;;;6152251;23;20371;-87
2023/02/28 07:50:34;;;;;;;11.33;4.50;;;;;;;;;;6153168;23;20705;-87
2023/02/28 07:53:07;;;;;;;11.32;4.93;;;;;;;;;;6161057;23;20371;-87
2023/02/28 07:55:34;;;;;;;10.52;4.78;;;;;;;;;;6152667;23;20375;-87
2023/02/28 07:58:02;;;;;;;12.15;4.57;;;;;;;;;;6126425;23;20720;-87
2023/02/28 08:00:31;;;;;;;9.25;4.10;;;;;;;;;;6121297;23;20783;-83
2023/02/28 08:03:06;;;;;;;9.73;4.10;;;;;;;;;;6148278;23;21015;-89
2023/02/28 08:05:33;;;;;;;9.48;4.00;;;;;;;;;;6116151;23;20382;-86
2023/02/28 08:08:01;;;;;;;9.80;4.30;;;;;;;;;;6132268;23;21111;-85
2023/02/28 08:10:29;;;;;;;10.50;5.07;;;;;;;;;;6133068;23;20379;-85
2023/02/28 08:12:57;;;;;;;12.80;5.40;;;;;;;;;;6133850;23;20375;-83
2023/02/28 08:15:30;;;;;;;14.10;6.55;;;;;;;;;;6110376;23;20881;-85
2023/02/28 08:17:58;;;;;;;16.90;7.07;;;;;;;;;;6134476;23;20371;-85
2023/02/28 08:20:27;;;;;;;14.23;6.97;;;;;;;;;;6132627;23;20367;-83
2023/02/28 08:23:00;;;;;;;12.45;6.30;;;;;;;;;;6145908;23;20389;-85
2023/02/28 08:25:28;;;;;;;16.85;6.70;;;;;;;;;;6152881;23;20815;-86
2023/02/28 08:27:55;;;;;;;15.40;6.75;;;;;;;;;;6130816;23;20374;-84
2023/02/28 08:30:28;;;;;;;14.90;6.40;;;;;;;;;;6142736;23;21141;-84
2023/02/28 08:32:56;;;;;;;14.18;6.72;;;;;;;;;;6130334;23;20367;-82
2023/02/28 08:35:30;;;;;;;13.32;5.90;;;;;;;;;;6141202;23;20375;-83
2023/02/28 08:37:58;;;;;;;12.32;5.97;;;;;;;;;;6130367;23;20366;-84
2023/02/28 08:40:31;;;;;;;14.15;6.45;;;;;;;;;;6102714;23;20389;-82
2023/02/28 08:43:04;;;;;;;12.40;5.85;;;;;;;;;;6139760;23;20835;-84
2023/02/28 08:45:32;;;;;;;11.65;6.03;;;;;;;;;;6106201;23;20387;-86
2023/02/28 08:48:00;;;;;;;13.50;6.18;;;;;;;;;;6108102;23;20386;-84
2023/02/28 08:50:34;;;;;;;13.60;6.57;;;;;;;;;;6107613;23;20455;-86
2023/02/28 08:53:07;;;;;;;10.38;5.82;;;;;;;;;;6140505;23;20394;-84
2023/02/28 08:55:34;;;;;;;11.17;5.67;;;;;;;;;;6105520;23;20383;-85
2023/02/28 08:58:07;;;;;;;10.27;4.10;;;;;;;;;;6104144;23;20390;-83
2023/02/28 09:00:36;;;;;;;10.30;4.63;;;;;;;;;;6106764;23;20390;-86
2023/02/28 09:03:04;;;;;;;5.40;2.20;;;;;;;;;;6104114;23;20390;-83
2023/02/28 09:05:32;;;;;;;6.22;2.42;;;;;;;;;;6131823;23;20371;-84
2023/02/28 09:08:01;;;;;;;6.95;3.35;;;;;;;;;;6104596;23;20383;-84
2023/02/28 09:10:29;;;;;;;7.93;2.83;;;;;;;;;;6129787;23;20367;-84
2023/02/28 09:12:57;;;;;;;4.80;2.10;;;;;;;;;;6131825;23;20383;-85
2023/02/28 09:15:25;;;;;;;4.00;1.67;;;;;;;;;;6135018;23;20508;-85
2023/02/28 09:17:58;;;;;;;5.07;1.98;;;;;;;;;;6133043;23;20398;-85
2023/02/28 09:20:31;;;;;;;6.70;2.00;;;;;;;;;;6103810;23;20394;-85
2023/02/28 09:23:05;;;;;;;4.88;1.98;;;;;;;;;;6145329;23;20863;-86
2023/02/28 09:25:38;;;;;;;6.78;2.40;;;;;;;;;;6110320;23;20382;-87
2023/02/28 09:28:06;;;;;;;6.78;2.92;;;;;;;;;;6148906;23;20367;-86
2023/02/28 09:30:33;;;;;;;6.93;2.38;;;;;;;;;;6110924;23;20387;-87
2023/02/28 09:33:06;;;;;;;6.15;2.22;;;;;;;;;;6131972;23;20413;-87
2023/02/28 09:35:34;;;;;;;5.10;2.30;;;;;;;;;;6135901;23;20386;-87
2023/02/28 09:38:02;;;;;;;5.20;2.20;;;;;;;;;;6107129;23;20390;-86
2023/02/28 09:40:32;;;;;;;6.18;2.28;;;;;;;;;;6138010;23;20375;-85
2023/02/28 09:43:05;;;;;;;4.33;2.03;;;;;;;;;;6107437;23;20393;-86
2023/02/28 09:45:35;;;;;;;7.00;2.80;;;;;;;;;;6133527;23;20371;-84
2023/02/28 09:48:16;;;;;;;5.22;1.90;;;;;;;;;;6146324;23;20398;-85
2023/02/28 09:50:46;;;;;;;7.37;2.60;;;;;;;;;;6143263;23;20761;-86
2023/02/28 09:53:22;;;;;;;5.03;1.73;;;;;;;;;;6148307;23;20401;-85
2023/02/28 09:55:54;;;;;;;2.70;1.20;;;;;;;;;;6110390;23;20387;-86
2023/02/28 09:58:26;;;;;;;3.40;1.38;;;;;;;;;;6114738;23;20409;-85
2023/02/28 10:01:01;;;;;;;2.72;1.27;;;;;;;;;;6131263;23;20397;-85
2023/02/28 10:03:31;;;;;;;6.10;1.40;;;;;;;;;;6109857;23;20390;-85
2023/02/28 10:06:03;;;;;;;4.35;1.50;;;;;;;;;;6137729;23;20371;-84
2023/02/28 10:08:34;;;;;;;4.87;1.53;;;;;;;;;;6111423;23;20402;-85
2023/02/28 10:11:10;;;;;;;3.97;1.17;;;;;;;;;;6113280;23;20383;-84
2023/02/28 10:13:41;;;;;;;2.50;1.10;;;;;;;;;;6140670;23;20371;-85
2023/02/28 10:16:11;;;;;;;4.25;1.10;;;;;;;;;;6142866;23;20367;-85
2023/02/28 10:18:42;;;;;;;2.80;1.10;;;;;;;;;;6111541;23;20437;-85
2023/02/28 10:21:18;;;;;;;2.70;1.20;;;;;;;;;;6136202;23;20394;-83
2023/02/28 10:23:47;;;;;;;3.28;1.20;;;;;;;;;;6146858;23;20846;-85
2023/02/28 10:26:23;;;;;;;1.88;1.05;;;;;;;;;;6151698;23;20385;-85
2023/02/28 10:28:52;;;;;;;3.45;1.30;;;;;;;;;;6137800;23;20374;-85
2023/02/28 10:31:25;;;;;;;3.00;1.23;;;;;;;;;;6144299;23;20375;-84
2023/02/28 10:33:53;;;;;;;2.90;0.95;;;;;;;;;;6109388;23;20391;-86
2023/02/28 10:36:21;;;;;;;3.42;1.45;;;;;;;;;;6112522;23;20971;-85
2023/02/28 10:38:54;;;;;;;5.32;1.45;;;;;;;;;;6106420;23;20906;-87
2023/02/28 10:41:34;;;;;;;4.05;1.10;;;;;;;;;;6130687;23;20410;-86
2023/02/28 10:44:20;;;;;;;5.00;1.40;;;;;;;;;;6105855;23;20391;-86
2023/02/28 10:46:48;;;;;;;3.60;1.50;;;;;;;;;;6144331;23;20375;-86
2023/02/28 10:49:18;;;;;;;4.10;1.40;;;;;;;;;;6109052;23;20390;-85
2023/02/28 10:51:48;;;;;;;3.38;1.58;;;;;;;;;;6112862;23;20389;-85
2023/02/28 10:54:22;;;;;;;5.27;1.87;;;;;;;;;;6110528;23;20397;-86
2023/02/28 10:57:08;;;;;;;5.15;1.67;;;;;;;;;;6129813;23;20394;-85
2023/02/28 10:59:43;;;;;;;4.57;1.40;;;;;;;;;;6134330;23;20860;-86
2023/02/28 11:02:25;;;;;;;4.00;1.40;;;;;;;;;;6133188;23;20375;-84
2023/02/28 11:04:58;;;;;;;5.47;2.30;;;;;;;;;;6108188;23;20393;-85
2023/02/28 11:07:31;;;;;;;4.85;1.45;;;;;;;;;;6107079;23;20387;-85
2023/02/28 11:09:59;;;;;;;4.23;1.60;;;;;;;;;;6112088;23;20389;-85
2023/02/28 11:12:35;;;;;;;5.15;1.60;;;;;;;;;;6135981;23;20386;-85
2023/02/28 11:15:07;;;;;;;5.85;1.75;;;;;;;;;;6111942;23;20394;-86
2023/02/28 11:17:36;;;;;;;4.40;1.48;;;;;;;;;;6109035;23;20390;-85
2023/02/28 11:20:21;;;;;;;5.22;2.00;;;;;;;;;;6132019;23;20752;-86
2023/02/28 11:22:58;;;;;;;4.93;1.50;;;;;;;;;;6144176;23;20733;-85
2023/02/28 11:25:32;;;;;;;3.67;1.30;;;;;;;;;;6144420;23;20375;-86
2023/02/28 11:28:06;;;;;;;4.35;1.75;;;;;;;;;;6113488;23;20391;-85
2023/02/28 11:30:37;;;;;;;3.10;1.30;;;;;;;;;;6108386;23;20387;-85
2023/02/28 11:33:21;;;;;;;6.68;1.55;;;;;;;;;;6111698;23;20387;-85
2023/02/28 11:35:56;;;;;;;4.68;1.50;;;;;;;;;;6134386;23;21254;-86
2023/02/28 11:38:28;;;;;;;4.25;1.60;;;;;;;;;;6143405;23;20367;-86
2023/02/28 11:41:18;;;;;;;5.72;1.70;;;;;;;;;;6137979;23;20968;-87
2023/02/28 11:43:54;;;;;;;3.65;1.67;;;;;;;;;;6143574;23;20367;-86
2023/02/28 11:46:31;;;;;;;3.33;1.58;;;;;;;;;;6110484;23;20447;-87
2023/02/28 11:49:11;;;;;;;5.10;1.52;;;;;;;;;;6136915;23;20413;-84
2023/02/28 11:51:47;;;;;;;3.72;1.52;;;;;;;;;;6138995;23;21151;-86
2023/02/28 11:54:30;;;;;;;3.13;1.48;;;;;;;;;;6148531;23;20848;-87
2023/02/28 11:56:59;;;;;;;3.00;1.40;;;;;;;;;;6138022;23;20644;-87
2023/02/28 11:59:39;;;;;;;3.35;1.40;;;;;;;;;;6109778;23;20410;-86
2023/02/28 12:02:29;;;;;;;2.38;1.10;;;;;;;;;;6140092;23;20383;-86
2023/02/28 12:05:19;;;;;;;5.27;1.37;;;;;;;;;;6147753;23;20383;-86
2023/02/28 12:07:52;;;;;;;3.05;1.30;;;;;;;;;;6112433;23;20383;-86
2023/02/28 12:10:22;;;;;;;4.60;1.50;;;;;;;;;;6114170;23;20394;-86
2023/02/28 12:12:58;;;;;;;3.57;1.33;;;;;;;;;;6141023;23;20468;-83
2023/02/28 12:15:37;;;;;;;3.15;1.50;;;;;;;;;;6111233;23;20397;-87
2023/02/28 12:18:13;;;;;;;3.08;1.23;;;;;;;;;;6107522;23;20394;-85
2023/02/28 12:20:50;;;;;;;4.57;1.70;;;;;;;;;;6114729;23;20399;-87
2023/02/28 12:23:30;;;;;;;3.67;1.60;;;;;;;;;;6110790;23;20387;-86
2023/02/28 12:26:03;;;;;;;6.07;1.40;;;;;;;;;;6149663;23;20371;-85
2023/02/28 12:28:38;;;;;;;3.53;1.30;;;;;;;;;;6107062;23;20406;-86
2023/02/28 12:31:09;;;;;;;3.38;1.50;;;;;;;;;;6139405;23;20398;-87
2023/02/28 12:33:44;;;;;;;3.65;1.27;;;;;;;;;;6108726;23;20397;-86
2023/02/28 12:36:21;;;;;;;3.55;1.50;;;;;;;;;;6145104;23;20397;-86
2023/02/28 12:38:56;;;;;;;3.72;1.23;;;;;;;;;;6142808;23;20848;-86
2023/02/28 12:41:27;;;;;;;3.70;1.50;;;;;;;;;;6132041;23;20368;-85
2023/02/28 12:44:01;;;;;;;3.75;1.50;;;;;;;;;;6130736;23;20375;-85
2023/02/28 12:46:36;;;;;;;3.28;1.40;;;;;;;;;;6106183;23;20402;-86
2023/02/28 12:49:09;;;;;;;4.05;1.30;;;;;;;;;;6106599;23;21241;-85
2023/02/28 12:51:44;;;;;;;4.40;1.50;;;;;;;;;;6105426;23;21309;-86
2023/02/28 12:54:20;;;;;;;3.47;1.50;;;;;;;;;;6141445;23;21375;-87
2023/02/28 12:56:52;;;;;;;4.10;1.45;;;;;;;;;;6110624;23;20398;-86
2023/02/28 12:59:27;;;;;;;2.97;1.30;;;;;;;;;;6133548;23;20397;-86
2023/02/28 13:02:18;;;;;;;3.13;1.20;;;;;;;;;;6106382;23;20391;-86
2023/02/28 13:05:07;;;;;;;2.67;1.35;;;;;;;;;;6146557;23;20371;-87
2023/02/28 13:08:04;;;;;;;3.60;1.48;;;;;;;;;;6111245;23;20735;-86
2023/02/28 13:10:39;;;;;;;2.45;1.13;;;;;;;;;;6139709;23;20386;-85
2023/02/28 13:13:07;;;;;;;2.38;1.23;;;;;;;;;;6112978;23;20989;-88
2023/02/28 13:15:44;;;;;;;2.63;1.40;;;;;;;;;;6135531;23;20417;-87
2023/02/28 13:18:28;;;;;;;4.20;1.30;;;;;;;;;;6149139;23;20375;-86
2023/02/28 13:20:57;;;;;;;3.08;1.40;;;;;;;;;;6106491;23;20787;-87
2023/02/28 13:23:39;;;;;;;3.00;1.30;;;;;;;;;;6109258;23;20405;-88
2023/02/28 13:26:06;;;;;;;3.05;1.30;;;;;;;;;;6106213;23;20389;-88
2023/02/28 13:29:06;;;;;;;2.25;1.20;;;;;;;;;;6109610;23;20397;-86
2023/02/28 13:31:53;;;;;;;5.18;2.03;;;;;;;;;;6107575;23;21094;-86
2023/02/28 13:34:26;;;;;;;2.42;1.17;;;;;;;;;;6114016;23;20394;-86
2023/02/28 13:37:14;;;;;;;3.38;1.50;;;;;;;;;;6115718;23;21011;-86
2023/02/28 13:39:49;;;;;;;3.08;1.23;;;;;;;;;;6108585;23;20387;-86
2023/02/28 13:42:36;;;;;;;3.38;1.20;;;;;;;;;;6111135;23;20416;-88
2023/02/28 13:45:23;;;;;;;3.33;1.37;;;;;;;;;;6110064;23;20383;-89
2023/02/28 13:47:55;;;;;;;3.80;1.40;;;;;;;;;;6142785;23;21072;-87
2023/02/28 13:50:30;;;;;;;4.22;1.38;;;;;;;;;;6134298;23;20395;-87
2023/02/28 13:53:24;;;;;;;2.90;1.40;;;;;;;;;;6133432;23;20383;-86
2023/02/28 13:55:56;;;;;;;4.20;1.63;;;;;;;;;;6083968;23;20387;-88
2023/02/28 13:58:33;;;;;;;3.47;1.40;;;;;;;;;;6107870;23;21085;-89
2023/02/28 14:01:12;;;;;;;3.83;1.48;;;;;;;;;;6109308;23;20386;-86
2023/02/28 14:03:49;;;;;;;3.63;1.40;;;;;;;;;;6148979;23;20379;-87
2023/02/28 14:06:24;;;;;;;3.95;1.45;;;;;;;;;;6137745;23;20405;-87
2023/02/28 14:08:57;;;;;;;3.65;1.60;;;;;;;;;;6112656;23;20383;-88
2023/02/28 14:11:29;;;;;;;5.63;1.70;;;;;;;;;;6114042;23;20374;-87
2023/02/28 14:14:02;;;;;;;4.15;1.60;;;;;;;;;;6111179;23;20387;-87
2023/02/28 14:16:36;;;;;;;4.13;1.50;;;;;;;;;;6111770;23;20410;-87
2023/02/28 14:19:14;;;;;;;3.88;1.63;;;;;;;;;;6134151;23;20391;-87
2023/02/28 14:21:48;;;;;;;3.22;1.40;;;;;;;;;;6110997;23;20413;-87
2023/02/28 14:24:35;;;;;;;3.25;1.50;;;;;;;;;;6113802;23;20701;-87
2023/02/28 14:27:14;;;;;;;4.25;1.50;;;;;;;;;;6111631;23;20971;-87
2023/02/28 14:30:04;;;;;;;2.60;1.27;;;;;;;;;;6113280;23;20401;-88
2023/02/28 14:32:35;;;;;;;3.40;1.63;;;;;;;;;;6110879;23;20398;-88
2023/02/28 14:35:16;;;;;;;3.80;1.60;;;;;;;;;;6139930;23;20398;-87
2023/02/28 14:37:49;;;;;;;3.47;1.67;;;;;;;;;;6116003;23;20391;-88
2023/02/28 14:40:18;;;;;;;4.03;1.60;;;;;;;;;;6138783;23;20379;-88
2023/02/28 14:42:55;;;;;;;5.00;1.70;;;;;;;;;;6141424;23;20383;-89
2023/02/28 14:45:23;;;;;;;3.65;1.75;;;;;;;;;;6113492;23;20394;-90
2023/02/28 14:47:52;;;;;;;4.60;1.77;;;;;;;;;;6114474;23;20716;-88
2023/02/28 14:50:21;;;;;;;5.35;2.17;;;;;;;;;;6112777;23;20383;-88
2023/02/28 14:52:49;;;;;;;3.17;1.60;;;;;;;;;;6139904;23;20390;-88
2023/02/28 14:55:24;;;;;;;4.53;1.90;;;;;;;;;;6113164;23;20397;-87
2023/02/28 14:57:54;;;;;;;4.10;1.70;;;;;;;;;;6108473;23;21077;-87
2023/02/28 15:00:24;;;;;;;4.10;1.60;;;;;;;;;;6112277;23;20387;-88
2023/02/28 15:02:58;;;;;;;4.50;1.70;;;;;;;;;;6148912;23;20442;-87
2023/02/28 15:05:31;;;;;;;4.00;1.70;;;;;;;;;;6110442;23;20391;-87
2023/02/28 15:08:06;;;;;;;4.93;1.98;;;;;;;;;;6148205;23;20386;-88
2023/02/28 15:10:34;;;;;;;4.63;1.80;;;;;;;;;;6110136;23;20387;-88
2023/02/28 15:13:05;;;;;;;4.32;1.85;;;;;;;;;;6109273;23;20386;-87